Time;durP1;ratioP1;P1;durP2;ratioP2;P2;SDS_P1;SDS_P2;PMS_P1;PMS_P2;Temp;Humidity;BMP_temperature;BMP_pressure;BME280_temperature;BME280_humidity;BME280_pressure;Samples;Min_cycle;Max_cycle;Signal;HPM_P1;HPM_P2
2021/03/30 00:01:07;;;;;;;20.30;11.90;;;13.20;99.90;;;13.46;53.92;102900.22;5075171;28;20048;-78
2021/03/30 00:03:35;;;;;;;18.98;11.20;;;13.20;99.90;;;13.41;53.70;102907.22;5074846;28;20041;-78
2021/03/30 00:06:03;;;;;;;18.30;10.32;;;13.10;99.90;;;13.37;53.74;102897.41;5075140;28;20048;-77
2021/03/30 00:08:31;;;;;;;19.58;11.40;;;13.00;99.90;;;13.22;53.96;102891.84;5074901;28;20086;-78
2021/03/30 00:10:59;;;;;;;19.02;11.02;;;13.00;99.90;;;13.36;53.60;102901.81;5075057;28;20040;-77
2021/03/30 00:13:27;;;;;;;15.20;10.63;;;13.10;99.90;;;13.45;53.82;102909.06;5074613;28;20097;-78
2021/03/30 00:15:54;;;;;;;23.13;12.57;;;13.10;99.90;;;13.13;53.90;102849.13;5090339;28;20052;-76
2021/03/30 00:18:22;;;;;;;19.75;10.95;;;13.10;99.90;;;13.40;53.90;102881.50;5074643;28;20044;-78
2021/03/30 00:20:50;;;;;;;20.85;10.98;;;13.10;99.90;;;13.55;54.01;102895.94;5074806;28;20056;-78
2021/03/30 00:23:18;;;;;;;18.55;11.48;;;13.10;99.90;;;13.56;53.87;102895.06;5074651;28;20049;-78
2021/03/30 00:25:45;;;;;;;18.60;12.07;;;13.20;99.90;;;13.54;54.14;102899.47;5074593;28;20040;-78
2021/03/30 00:28:14;;;;;;;20.80;11.80;;;13.10;99.90;;;13.53;53.97;102892.34;5074610;28;20045;-78
2021/03/30 00:30:41;;;;;;;20.58;11.85;;;13.10;99.90;;;13.51;54.01;102899.41;5074254;28;20050;-78
2021/03/30 00:33:08;;;;;;;19.38;11.23;;;13.10;99.90;;;13.47;54.12;102902.00;5074542;28;20505;-78
2021/03/30 00:35:36;;;;;;;18.83;12.20;;;13.10;99.90;;;13.40;54.57;102893.03;5074471;28;20040;-78
2021/03/30 00:38:03;;;;;;;21.50;13.00;;;13.10;99.90;;;13.38;54.79;102900.09;5074253;28;20036;-79
2021/03/30 00:40:31;;;;;;;17.15;12.57;;;13.00;99.90;;;13.34;55.05;102900.91;5074230;28;20043;-78
2021/03/30 00:42:58;;;;;;;21.13;12.10;;;13.00;99.90;;;13.32;55.19;102907.06;5074461;28;20044;-79
2021/03/30 00:45:26;;;;;;;19.40;12.88;;;12.90;99.90;;;13.30;55.12;102898.16;5074062;28;20036;-77
2021/03/30 00:47:54;;;;;;;20.85;12.68;;;12.90;99.90;;;13.25;55.31;102898.09;5089853;28;20410;-78
2021/03/30 00:50:24;;;;;;;18.15;12.27;;;12.90;99.90;;;13.23;55.55;102890.97;5074156;28;20036;-78
2021/03/30 00:52:54;;;;;;;24.65;11.98;;;12.80;99.90;;;13.26;55.34;102907.84;5089715;28;20076;-78
2021/03/30 00:55:46;;;;;;;19.92;12.73;;;12.80;99.90;;;13.24;55.42;102901.59;5072588;28;20509;-78
2021/03/30 00:58:13;;;;;;;17.95;12.30;;;12.80;99.90;;;13.20;55.76;102902.41;5073837;28;20056;-78
2021/03/30 01:00:41;;;;;;;21.67;12.90;;;12.80;99.90;;;13.17;55.42;102905.03;5073961;28;20444;-78
2021/03/30 01:03:09;;;;;;;23.25;12.43;;;12.80;99.90;;;13.08;55.76;102907.53;5073828;28;20044;-78
2021/03/30 01:05:36;;;;;;;24.83;12.95;;;12.70;99.90;;;12.99;56.00;102909.09;5073917;28;20076;-78
2021/03/30 01:08:19;;;;;;;22.30;14.20;;;12.60;99.90;;;12.93;56.29;102899.22;5073512;28;20047;-78
2021/03/30 01:10:56;;;;;;;25.60;14.05;;;12.50;99.90;;;12.92;56.39;102900.13;5072563;28;20143;-76
2021/03/30 01:13:53;;;;;;;25.92;13.77;;;12.50;99.90;;;12.91;56.46;102890.34;5072378;28;20079;-78
2021/03/30 01:16:28;;;;;;;19.58;12.57;;;12.50;99.90;;;12.83;56.66;102891.97;5073417;28;20046;-78
2021/03/30 01:19:13;;;;;;;24.70;15.30;;;12.50;99.90;;;12.72;57.15;102892.66;5073428;28;20045;-78
2021/03/30 01:22:13;;;;;;;22.50;13.68;;;12.40;99.90;;;12.76;57.19;102890.06;5073520;28;20417;-78
2021/03/30 01:24:45;;;;;;;20.65;14.50;;;12.30;99.90;;;12.68;57.27;102886.34;5073362;28;20049;-78
2021/03/30 01:27:27;;;;;;;20.73;13.63;;;12.30;99.90;;;12.61;57.51;102884.47;5073317;28;20052;-77
2021/03/30 01:29:55;;;;;;;26.73;13.68;;;12.20;99.90;;;12.57;57.42;102879.94;5073290;28;20040;-78
2021/03/30 01:32:29;;;;;;;20.45;12.93;;;12.20;99.90;;;12.47;57.87;102876.22;5072032;28;20135;-76
2021/03/30 01:35:00;;;;;;;21.48;13.90;;;12.10;99.90;;;12.40;57.92;102871.66;5073224;28;20489;-78
2021/03/30 01:37:28;;;;;;;24.80;13.45;;;12.00;99.90;;;12.48;57.67;102877.13;5073167;28;20048;-78
2021/03/30 01:40:00;;;;;;;23.92;14.35;;;12.10;99.90;;;12.57;57.55;102875.53;5071984;28;20513;-78
2021/03/30 01:42:31;;;;;;;20.65;13.55;;;12.10;99.90;;;12.67;57.25;102879.28;5073348;28;20045;-78
2021/03/30 01:45:00;;;;;;;25.77;15.13;;;12.20;99.90;;;12.54;57.16;102874.59;5073098;28;20040;-78
2021/03/30 01:47:29;;;;;;;23.70;13.50;;;12.20;99.90;;;12.42;57.31;102867.28;5073004;28;20055;-78
2021/03/30 01:49:58;;;;;;;22.00;14.20;;;12.10;99.90;;;12.54;57.23;102872.81;5072848;28;20111;-78
2021/03/30 01:52:25;;;;;;;24.50;14.50;;;12.20;99.90;;;12.64;56.80;102877.44;5073096;28;20122;-78
2021/03/30 01:54:54;;;;;;;26.02;14.68;;;12.20;99.90;;;12.61;56.86;102860.56;5073219;28;20045;-78
2021/03/30 01:57:31;;;;;;;27.42;15.63;;;12.30;99.90;;;12.69;56.64;102873.13;5072931;28;20062;-78
2021/03/30 02:00:01;;;;;;;19.60;13.77;;;12.30;99.90;;;12.62;56.52;102870.31;5072850;28;20494;-78
2021/03/30 02:02:29;;;;;;;24.27;15.55;;;12.30;99.90;;;12.57;56.79;102869.34;5072788;28;20053;-78
2021/03/30 02:04:57;;;;;;;21.98;14.68;;;12.20;99.90;;;12.67;56.51;102873.97;5071674;28;20075;-77
2021/03/30 02:07:25;;;;;;;20.48;14.05;;;12.30;99.90;;;12.51;56.35;102832.03;5072665;28;20079;-78
2021/03/30 02:09:55;;;;;;;25.33;14.60;;;12.30;99.90;;;12.48;56.50;102842.63;5072028;28;20036;-78
2021/03/30 02:12:23;;;;;;;24.45;14.98;;;12.30;99.90;;;12.63;56.68;102861.50;5072670;28;20138;-78
2021/03/30 02:14:51;;;;;;;22.38;15.18;;;12.30;99.90;;;12.64;56.45;102865.91;5072933;28;20505;-78
2021/03/30 02:17:27;;;;;;;20.60;14.32;;;12.30;99.90;;;12.68;56.27;102858.06;5072573;28;20072;-78
2021/03/30 02:20:00;;;;;;;23.65;15.05;;;12.30;99.90;;;12.67;56.18;102866.91;5072777;28;20037;-78
2021/03/30 02:22:40;;;;;;;26.42;14.98;;;12.30;99.90;;;12.61;56.28;102858.81;5072763;28;20044;-78
2021/03/30 02:25:08;;;;;;;26.15;14.95;;;12.30;99.90;;;12.51;56.77;102855.94;5072683;28;20068;-78
2021/03/30 02:27:40;;;;;;;25.73;14.32;;;12.30;99.90;;;12.48;56.95;102862.09;5072273;28;20068;-78
2021/03/30 02:30:13;;;;;;;20.70;13.98;;;12.20;99.90;;;12.44;57.14;102854.94;5072667;28;20079;-79
2021/03/30 02:32:44;;;;;;;23.75;15.05;;;12.20;99.90;;;12.46;57.10;102858.53;5072654;28;20048;-78
2021/03/30 02:35:14;;;;;;;19.40;13.75;;;12.10;99.90;;;12.52;56.86;102853.31;5088101;28;20068;-78
2021/03/30 02:37:43;;;;;;;24.35;14.65;;;12.20;99.90;;;12.55;56.55;102857.78;5072518;28;20094;-78
2021/03/30 02:40:16;;;;;;;22.27;14.45;;;12.20;99.90;;;12.55;56.34;102855.13;5072604;28;20068;-78
2021/03/30 02:42:47;;;;;;;21.52;13.73;;;12.30;99.90;;;12.38;56.23;102838.91;5072608;28;20084;-78
2021/03/30 02:45:18;;;;;;;26.02;14.98;;;12.30;99.90;;;12.56;56.09;102864.91;5072517;28;20044;-77
2021/03/30 02:48:08;;;;;;;24.17;14.73;;;12.20;99.90;;;12.61;55.90;102865.88;5087926;28;20049;-78
2021/03/30 02:50:39;;;;;;;21.80;14.20;;;12.30;99.90;;;12.58;56.03;102863.19;5072409;28;20052;-77
2021/03/30 02:53:08;;;;;;;25.70;15.75;;;12.30;99.90;;;12.54;55.99;102853.38;5072506;28;20047;-78
2021/03/30 02:55:37;;;;;;;26.42;14.25;;;12.30;99.90;;;12.48;56.18;102856.78;5072222;28;20118;-77
2021/03/30 02:58:05;;;;;;;24.02;14.25;;;12.20;99.90;;;12.48;56.27;102862.09;5072437;28;20036;-79
2021/03/30 03:00:34;;;;;;;23.50;14.15;;;12.20;99.90;;;12.51;56.07;102861.25;5072287;28;20041;-78
2021/03/30 03:03:05;;;;;;;25.47;14.07;;;12.20;99.90;;;12.43;56.13;102853.13;5072138;28;20048;-78
2021/03/30 03:05:33;;;;;;;21.25;14.05;;;12.10;99.90;;;12.39;56.11;102859.25;5072388;28;20094;-78
2021/03/30 03:08:01;;;;;;;24.92;14.88;;;12.10;99.90;;;12.35;55.97;102862.69;5072039;28;20087;-78
2021/03/30 03:10:28;;;;;;;23.70;14.90;;;12.00;99.90;;;12.42;55.81;102866.38;5072093;28;20040;-78
2021/03/30 03:12:57;;;;;;;22.85;13.07;;;12.10;99.90;;;12.44;55.65;102862.00;5070794;28;20090;-78
2021/03/30 03:15:25;;;;;;;20.88;14.32;;;12.00;99.90;;;12.41;55.76;102865.47;5071740;28;20106;-77
2021/03/30 03:17:56;;;;;;;21.58;13.25;;;12.10;99.90;;;12.45;55.65;102858.47;5072231;28;20106;-78
2021/03/30 03:20:26;;;;;;;19.33;14.13;;;12.00;99.90;;;12.40;55.54;102869.00;5073709;28;20049;-78
2021/03/30 03:22:54;;;;;;;23.73;13.23;;;12.00;99.90;;;12.42;55.65;102867.28;5075826;28;20036;-78
2021/03/30 03:25:24;;;;;;;19.48;13.02;;;12.00;99.90;;;12.39;55.38;102866.31;5075630;28;20617;-78
2021/03/30 03:27:51;;;;;;;23.45;13.65;;;12.00;99.90;;;12.38;55.70;102867.19;5075698;28;20068;-78
2021/03/30 03:30:25;;;;;;;18.55;12.85;;;12.00;99.90;;;12.36;55.72;102872.47;5091388;28;20139;-78
2021/03/30 03:32:53;;;;;;;20.85;13.68;;;12.00;99.90;;;12.37;55.53;102870.69;5075557;28;20059;-78
2021/03/30 03:35:20;;;;;;;22.98;13.38;;;12.00;99.90;;;12.32;55.73;102870.63;5075407;28;20506;-78
2021/03/30 03:37:48;;;;;;;20.73;13.50;;;12.00;99.90;;;12.38;55.45;102877.81;5075385;28;20048;-79
2021/03/30 03:40:18;;;;;;;20.73;13.90;;;12.00;99.90;;;12.32;55.58;102880.31;5074074;28;20040;-78
2021/03/30 03:42:46;;;;;;;18.80;13.30;;;11.90;99.90;;;12.22;55.63;102884.53;5091245;28;20445;-78
2021/03/30 03:45:14;;;;;;;20.02;13.10;;;11.90;99.90;;;12.22;55.77;102883.63;5075475;28;20075;-78
2021/03/30 03:47:41;;;;;;;19.90;13.52;;;11.80;99.90;;;12.21;55.79;102877.47;5075384;28;20055;-78
2021/03/30 03:50:10;;;;;;;20.02;14.63;;;11.80;99.90;;;12.17;55.94;102882.66;5075274;28;20045;-78
2021/03/30 03:52:44;;;;;;;22.35;15.18;;;11.80;99.90;;;12.18;55.75;102880.03;5075230;28;20036;-78
2021/03/30 03:55:16;;;;;;;21.48;14.15;;;11.80;99.90;;;12.13;56.01;102879.06;5075153;28;20123;-78
2021/03/30 03:57:51;;;;;;;20.42;14.32;;;11.80;99.90;;;12.14;55.87;102886.13;5075109;28;20082;-78
2021/03/30 04:00:22;;;;;;;19.35;13.63;;;11.80;99.90;;;12.15;56.09;102887.94;5075136;28;20080;-78
2021/03/30 04:02:55;;;;;;;20.42;13.55;;;11.80;99.90;;;12.15;56.20;102887.94;5075116;28;20049;-78
2021/03/30 04:05:27;;;;;;;21.17;14.27;;;11.80;99.90;;;12.18;56.21;102893.31;5075016;28;20053;-78
2021/03/30 04:07:59;;;;;;;18.65;14.38;;;11.90;99.90;;;12.23;56.02;102888.09;5075090;28;20379;-79
2021/03/30 04:10:31;;;;;;;25.17;14.73;;;11.90;99.90;;;12.25;56.01;102895.22;5075225;28;20047;-76
2021/03/30 04:12:58;;;;;;;21.33;14.00;;;11.90;99.90;;;12.22;55.85;102895.16;5074969;28;20055;-75
2021/03/30 04:15:26;;;;;;;20.90;14.52;;;11.90;99.90;;;12.26;55.73;102891.72;5074746;28;20103;-75
2021/03/30 04:17:54;;;;;;;20.02;14.90;;;12.00;99.90;;;12.30;55.91;102890.00;5074690;28;20051;-75
2021/03/30 04:20:22;;;;;;;19.50;13.98;;;12.00;99.90;;;12.31;55.85;102900.66;5074781;28;20040;-74
2021/03/30 04:22:53;;;;;;;18.08;14.63;;;12.00;99.90;;;12.31;55.76;102899.78;5074841;28;20102;-74
2021/03/30 04:25:21;;;;;;;22.73;15.30;;;12.00;99.90;;;12.32;55.69;102905.13;5073386;28;20048;-75
2021/03/30 04:27:49;;;;;;;23.20;15.23;;;11.90;99.90;;;12.28;55.73;102899.69;5073322;28;20135;-77
2021/03/30 04:30:18;;;;;;;18.90;13.88;;;12.00;99.90;;;12.17;56.94;102906.53;5074669;28;20041;-76
2021/03/30 04:32:45;;;;;;;23.70;14.38;;;11.90;99.90;;;12.15;56.82;102901.22;5073562;28;20045;-76
2021/03/30 04:35:14;;;;;;;23.95;15.45;;;11.90;99.90;;;12.12;56.65;102905.53;5074584;28;20105;-77
2021/03/30 04:37:42;;;;;;;24.02;16.13;;;11.80;99.90;;;12.11;56.26;102906.41;5074494;28;20446;-76
2021/03/30 04:40:12;;;;;;;26.40;17.55;;;11.80;99.90;;;12.08;56.38;102916.97;5074486;28;20048;-76
2021/03/30 04:42:40;;;;;;;;;;;11.80;99.90;;;12.09;56.41;102908.13;5074759;28;20044;-76
2021/03/30 04:45:10;;;;;;;37.55;19.20;;;11.80;99.90;;;12.08;56.57;102911.66;5074232;28;20356;-83
2021/03/30 04:47:38;;;;;;;29.60;18.33;;;11.80;99.90;;;12.03;56.75;102910.63;5074351;28;20071;-75
2021/03/30 04:50:08;;;;;;;25.42;17.23;;;11.70;99.90;;;12.05;57.25;102908.91;5074421;28;20064;-75
2021/03/30 04:52:36;;;;;;;25.80;16.97;;;11.70;99.90;;;11.95;57.99;102910.47;5074154;28;20075;-74
2021/03/30 04:55:04;;;;;;;30.90;19.13;;;11.60;99.90;;;11.81;58.75;102901.28;5073989;28;20040;-75
2021/03/30 04:57:32;;;;;;;40.03;23.17;;;11.50;99.90;;;11.80;58.77;102910.13;5073805;28;20083;-75
2021/03/30 04:59:59;;;;;;;31.33;18.40;;;11.50;99.90;;;11.69;59.30;102912.50;5073779;28;20044;-76
2021/03/30 05:02:27;;;;;;;29.65;18.60;;;11.40;99.90;;;11.66;59.77;102912.44;5073816;28;20498;-75
2021/03/30 05:04:55;;;;;;;31.00;18.08;;;11.30;99.90;;;11.65;60.36;102910.66;5074046;28;20115;-75
2021/03/30 05:07:22;;;;;;;47.78;23.80;;;11.30;99.90;;;11.59;59.53;102914.88;5073864;28;20502;-75
2021/03/30 05:09:50;;;;;;;41.13;23.38;;;11.30;99.90;;;11.62;59.12;102909.66;5073638;28;20068;-75
2021/03/30 05:12:17;;;;;;;46.63;23.48;;;11.30;99.90;;;11.68;58.95;102904.53;5073353;28;20466;-75
2021/03/30 05:14:44;;;;;;;42.10;22.73;;;11.30;99.90;;;11.65;58.77;102912.38;5073362;28;20085;-76
2021/03/30 05:17:11;;;;;;;39.90;23.33;;;11.30;99.90;;;11.63;59.02;102909.66;5073579;28;20082;-75
2021/03/30 05:19:41;;;;;;;53.70;26.17;;;11.30;99.90;;;11.62;59.23;102907.91;5073577;28;20429;-75
2021/03/30 05:22:09;;;;;;;31.30;18.37;;;11.30;99.90;;;11.54;59.95;102938.63;5073519;28;20050;-75
2021/03/30 05:24:36;;;;;;;33.70;19.30;;;11.30;99.90;;;11.60;60.59;102920.22;5073376;28;20047;-75
2021/03/30 05:27:05;;;;;;;40.05;22.52;;;11.30;99.90;;;11.61;60.28;102923.78;5073402;28;20143;-75
2021/03/30 05:29:42;;;;;;;49.35;25.23;;;11.30;99.90;;;11.68;59.60;102924.00;5073090;28;20068;-75
2021/03/30 05:32:11;;;;;;;43.00;23.45;;;11.30;99.90;;;11.77;59.01;102921.53;5073428;28;20060;-75
2021/03/30 05:34:39;;;;;;;46.83;24.88;;;11.40;99.90;;;11.90;58.67;102927.16;5073164;28;20395;-75
2021/03/30 05:37:07;;;;;;;49.10;23.45;;;11.50;99.90;;;12.02;58.12;102933.59;5073178;28;20059;-75
2021/03/30 05:39:35;;;;;;;40.05;22.25;;;11.60;99.90;;;12.16;57.90;102923.31;5071818;28;20509;-75
2021/03/30 05:42:04;;;;;;;38.55;21.75;;;11.80;99.90;;;12.35;57.41;102933.47;5073024;28;20420;-76
2021/03/30 05:44:32;;;;;;;41.60;22.02;;;12.00;99.90;;;12.31;57.09;102889.16;5073107;28;20070;-75
2021/03/30 05:47:11;;;;;;;35.22;21.23;;;12.10;99.90;;;12.65;57.24;102926.16;5072903;28;20048;-74
2021/03/30 05:49:40;;;;;;;32.60;20.30;;;12.20;99.90;;;12.80;56.74;102923.78;5072863;28;20440;-75
2021/03/30 05:52:16;;;;;;;34.10;20.65;;;12.40;99.90;;;12.92;56.94;102929.34;5073047;28;20075;-76
2021/03/30 05:54:47;;;;;;;28.88;18.63;;;12.50;99.90;;;12.99;58.16;102927.69;5073064;28;20094;-76
2021/03/30 05:57:17;;;;;;;36.05;20.98;;;12.60;99.90;;;13.18;57.57;102933.38;5088488;28;20056;-76
2021/03/30 05:59:54;;;;;;;34.97;19.67;;;12.80;99.90;;;13.40;56.35;102938.22;5072845;28;20397;-77
2021/03/30 06:02:24;;;;;;;38.47;21.38;;;13.00;99.90;;;13.70;55.19;102937.84;5072718;28;20486;-76
2021/03/30 06:04:52;;;;;;;35.78;20.02;;;13.40;99.90;;;14.01;54.59;102936.53;5071686;28;20056;-77
2021/03/30 06:07:20;;;;;;;36.88;21.50;;;13.70;99.90;;;14.31;54.12;102942.31;5072760;28;20079;-76
2021/03/30 06:09:48;;;;;;;38.30;21.80;;;14.00;99.90;;;14.58;53.52;102936.44;5072371;28;20037;-77
2021/03/30 06:12:17;;;;;;;34.70;18.83;;;14.30;99.90;;;14.54;53.56;102908.88;5072096;28;20090;-78
2021/03/30 06:14:47;;;;;;;33.15;19.08;;;14.40;99.90;;;14.84;52.61;102949.22;5072619;28;20098;-75
2021/03/30 06:17:16;;;;;;;35.20;19.52;;;14.60;99.90;;;14.98;52.15;102947.59;5072688;28;20045;-77
2021/03/30 06:19:55;;;;;;;44.70;22.42;;;14.70;99.90;;;15.09;50.95;102945.94;5072643;28;20040;-76
2021/03/30 06:22:25;;;;;;;33.83;21.10;;;14.80;99.90;;;15.16;50.90;102946.88;5072599;28;20055;-77
2021/03/30 06:24:54;;;;;;;38.20;21.67;;;14.90;99.90;;;15.32;50.18;102951.50;5072496;28;20040;-75
2021/03/30 06:27:29;;;;;;;46.50;22.27;;;15.10;99.90;;;15.50;49.84;102958.81;5072361;28;20044;-77
2021/03/30 06:29:59;;;;;;;43.90;20.35;;;15.20;99.90;;;15.64;49.55;102957.16;5072504;28;20516;-78
2021/03/30 06:32:28;;;;;;;40.60;22.35;;;15.40;99.90;;;15.67;49.10;102962.50;5072244;28;20139;-77
2021/03/30 06:35:11;;;;;;;34.10;20.00;;;15.40;99.90;;;15.72;49.65;102958.09;5072276;28;20040;-76
2021/03/30 06:37:41;;;;;;;43.50;23.55;;;15.40;99.90;;;15.70;48.68;102975.91;5072219;28;20044;-76
2021/03/30 06:40:21;;;;;;;46.67;24.33;;;15.40;99.90;;;15.73;48.24;102962.56;5072527;28;20052;-77
2021/03/30 06:42:52;;;;;;;48.67;24.42;;;15.50;99.90;;;15.81;48.14;102961.75;5072485;28;20044;-75
2021/03/30 06:45:29;;;;;;;44.38;23.73;;;15.50;99.90;;;15.94;47.88;102970.72;5072527;28;20175;-77
2021/03/30 06:48:00;;;;;;;41.60;23.15;;;15.60;99.90;;;16.29;47.29;102979.88;5072173;28;20037;-77
2021/03/30 06:50:30;;;;;;;41.67;22.15;;;15.90;99.90;;;16.46;47.17;102969.28;5071112;28;20052;-77
2021/03/30 06:53:11;;;;;;;45.80;23.08;;;16.00;99.90;;;16.51;47.52;102973.78;5072498;28;20041;-77
2021/03/30 06:55:48;;;;;;;34.58;21.20;;;16.20;99.90;;;16.45;47.53;102957.72;5074664;28;20055;-77
2021/03/30 06:58:16;;;;;;;37.42;22.02;;;16.30;99.90;;;16.34;47.74;102956.75;5076372;28;20382;-77
2021/03/30 07:00:45;;;;;;;39.65;20.77;;;16.20;99.90;;;15.87;47.49;102871.03;5075996;28;20371;-77
2021/03/30 07:03:16;;;;;;;36.03;20.05;;;16.20;99.90;;;16.62;47.21;102981.88;5076259;28;20074;-77
2021/03/30 07:05:46;;;;;;;32.05;19.90;;;16.30;99.90;;;16.86;47.01;102980.19;5076167;28;20044;-77
2021/03/30 07:08:16;;;;;;;30.55;20.23;;;16.40;99.90;;;17.11;47.00;102983.84;5076099;28;20082;-77
2021/03/30 07:10:46;;;;;;;34.78;19.80;;;16.70;99.90;;;17.08;46.91;102962.41;5075839;28;20493;-77
2021/03/30 07:13:15;;;;;;;;;;;16.80;99.90;;;17.28;46.91;102991.88;5076275;28;20118;-76
2021/03/30 07:15:44;;;;;;;34.30;19.95;;;16.90;99.90;;;17.35;46.28;102980.28;5076215;28;19967;-77
2021/03/30 07:18:18;;;;;;;32.25;21.30;;;17.00;99.90;;;17.53;47.12;102983.03;5075862;28;20044;-77
2021/03/30 07:20:51;;;;;;;37.75;21.10;;;17.20;99.90;;;17.74;47.12;102981.28;5075728;28;20044;-77
2021/03/30 07:23:24;;;;;;;38.70;21.75;;;17.30;99.90;;;17.83;47.20;102964.28;5075815;28;20455;-77
2021/03/30 07:25:59;;;;;;;34.15;21.17;;;17.50;99.90;;;17.90;47.44;102977.66;5074097;28;20509;-77
2021/03/30 07:28:30;;;;;;;38.72;22.13;;;17.50;99.90;;;17.93;48.22;102982.13;5075707;28;20044;-78
2021/03/30 07:31:09;;;;;;;45.35;22.80;;;17.50;99.90;;;17.90;49.26;102980.34;5075753;28;20045;-78
2021/03/30 07:33:45;;;;;;;35.90;21.23;;;17.50;99.90;;;17.70;51.01;102975.91;5075600;28;20040;-77
2021/03/30 07:36:17;;;;;;;40.65;21.75;;;17.30;99.90;;;17.54;51.75;102983.03;5074200;28;20090;-77
2021/03/30 07:38:50;;;;;;;37.90;22.13;;;17.20;99.90;;;17.41;53.07;102982.97;5075378;28;20063;-78
2021/03/30 07:41:20;;;;;;;40.72;20.92;;;17.00;99.90;;;17.54;53.76;102987.47;5075456;28;20048;-77
2021/03/30 07:43:49;;;;;;;31.75;20.15;;;17.20;99.90;;;17.68;52.42;102991.06;5075381;28;20047;-77
2021/03/30 07:46:20;;;;;;;33.28;19.42;;;17.30;99.90;;;18.04;53.25;102996.41;5075247;28;20040;-77
2021/03/30 07:48:48;;;;;;;41.17;20.73;;;17.60;99.90;;;18.14;52.22;102991.97;5074828;28;20049;-78
2021/03/30 07:51:22;;;;;;;35.80;19.35;;;17.80;99.90;;;18.44;52.79;102987.44;5075167;28;20131;-78
2021/03/30 07:53:54;;;;;;;34.92;19.95;;;18.10;99.90;;;18.25;52.57;102983.00;5075057;28;20057;-78
2021/03/30 07:56:54;;;;;;;37.95;20.48;;;18.00;99.90;;;18.58;52.75;102992.78;5075235;28;20428;-77
2021/03/30 07:59:48;;;;;;;29.73;20.90;;;18.30;99.90;;;18.89;52.34;102999.81;5074016;28;20052;-76
2021/03/30 08:02:21;;;;;;;36.83;20.58;;;18.50;99.90;;;19.37;52.11;102998.66;5074999;28;20040;-77
2021/03/30 08:05:10;;;;;;;33.05;19.90;;;19.00;99.90;;;19.56;50.30;103005.69;5075137;28;20040;-78
2021/03/30 08:07:55;;;;;;;41.13;21.15;;;19.20;99.90;;;19.93;48.66;103003.59;5089221;28;20448;-77
2021/03/30 08:10:30;;;;;;;37.17;19.73;;;19.70;99.90;;;20.19;46.50;102983.66;5074924;28;20044;-78
2021/03/30 08:13:26;;;;;;;41.70;18.75;;;20.00;99.90;;;20.63;42.82;103015.44;5073613;28;20382;-77
2021/03/30 08:15:56;;;;;;;34.47;18.70;;;20.40;99.90;;;20.78;42.26;103008.97;5074519;28;20452;-77
2021/03/30 08:18:27;;;;;;;41.72;20.67;;;20.60;99.90;;;21.19;42.17;103028.22;5074879;28;20051;-77
2021/03/30 08:21:02;;;;;;;44.50;20.05;;;20.90;99.90;;;21.35;40.55;103005.53;5074767;28;20051;-78
2021/03/30 08:23:30;;;;;;;52.42;21.98;;;21.30;99.90;;;21.70;41.50;103034.63;5074684;28;20036;-77
2021/03/30 08:26:19;;;;;;;53.85;21.15;;;21.50;99.90;;;21.95;40.03;103036.06;5074442;28;20037;-78
2021/03/30 08:29:01;;;;;;;38.92;20.13;;;21.70;99.90;;;22.09;38.94;103033.97;5074431;28;20041;-77
2021/03/30 08:31:32;;;;;;;36.40;18.90;;;21.90;99.90;;;22.38;38.47;103043.34;5074244;28;20497;-76
2021/03/30 08:34:02;;;;;;;41.60;22.52;;;22.20;99.90;;;22.55;38.30;103036.75;5074352;28;20455;-77
2021/03/30 08:36:33;;;;;;;36.47;20.27;;;22.30;99.90;;;22.68;37.63;103049.09;5074081;28;20044;-77
2021/03/30 08:39:06;;;;;;;33.20;20.08;;;22.50;99.90;;;22.64;36.90;103042.88;5074492;28;20048;-77
2021/03/30 08:41:55;;;;;;;32.63;19.17;;;22.50;99.90;;;22.12;37.82;103017.78;5074374;28;20079;-77
2021/03/30 08:44:50;;;;;;;30.38;19.00;;;22.10;99.90;;;22.25;37.36;103049.88;5074155;28;20045;-78
2021/03/30 08:47:32;;;;;;;32.28;19.63;;;22.00;99.90;;;22.17;38.01;103045.53;5089782;28;20114;-78
2021/03/30 08:50:22;;;;;;;39.58;20.23;;;21.90;99.90;;;21.62;37.73;103042.84;5074201;28;20122;-78
2021/03/30 08:52:50;;;;;;;34.80;21.13;;;21.40;99.90;;;21.41;39.17;103049.41;5073882;28;20047;-77
2021/03/30 08:55:27;;;;;;;36.38;21.90;;;21.10;99.90;;;20.81;40.11;103043.94;5073680;28;20344;-77
2021/03/30 08:57:59;;;;;;;34.85;21.63;;;20.60;99.90;;;20.91;39.94;103040.19;5073877;28;20053;-77
2021/03/30 09:00:28;;;;;;;31.05;20.95;;;20.60;99.90;;;21.07;38.80;103045.41;5073935;28;20048;-76
2021/03/30 09:02:59;;;;;;;33.85;21.48;;;20.70;99.90;;;21.25;38.79;103053.22;5073766;28;20041;-77
2021/03/30 09:05:27;;;;;;;33.42;22.65;;;20.90;99.90;;;21.05;39.21;103049.03;5073623;28;20048;-76
2021/03/30 09:07:55;;;;;;;34.38;24.77;;;20.80;99.90;;;20.90;38.74;103041.13;5072013;28;20527;-77
2021/03/30 09:10:23;;;;;;;37.55;25.98;;;20.70;99.90;;;21.17;38.82;103056.94;5073681;28;20044;-76
2021/03/30 09:12:50;;;;;;;42.35;25.05;;;20.80;99.90;;;21.31;38.64;103057.66;5073539;28;20041;-78
2021/03/30 09:15:19;;;;;;;37.97;26.63;;;21.00;99.90;;;21.62;38.44;103056.31;5073131;28;20086;-76
2021/03/30 09:17:58;;;;;;;42.10;27.85;;;21.30;99.90;;;21.58;37.17;103042.91;5073205;28;20039;-76
2021/03/30 09:20:27;;;;;;;38.08;25.55;;;21.30;99.90;;;21.51;38.81;103056.47;5073339;28;20048;-76
2021/03/30 09:22:57;;;;;;;35.28;24.27;;;21.20;99.90;;;20.75;40.38;103049.38;5073079;28;20386;-76
2021/03/30 09:25:31;;;;;;;38.53;23.75;;;20.60;99.90;;;20.76;39.49;103052.03;5073323;28;20128;-76
2021/03/30 09:28:00;;;;;;;30.88;20.27;;;20.50;99.90;;;21.14;36.58;103052.50;5073214;28;20064;-75
2021/03/30 09:30:28;;;;;;;30.17;21.50;;;20.70;99.90;;;21.39;38.60;103055.72;5073263;28;20394;-76
2021/03/30 09:32:57;;;;;;;39.88;22.70;;;21.00;99.90;;;21.42;40.01;103044.94;5072880;28;20060;-76
2021/03/30 09:35:28;;;;;;;34.50;21.23;;;21.00;99.90;;;21.00;38.19;103042.78;5073194;28;20119;-76
2021/03/30 09:38:00;;;;;;;40.05;21.15;;;20.80;99.90;;;21.31;36.20;103054.97;5073032;28;20055;-75
2021/03/30 09:40:31;;;;;;;31.67;19.98;;;21.00;99.90;;;21.06;37.69;103049.00;5073110;28;20049;-76
2021/03/30 09:42:59;;;;;;;30.92;21.25;;;20.90;99.90;;;20.82;38.29;103048.38;5073105;28;20036;-76
2021/03/30 09:45:30;;;;;;;35.03;20.48;;;20.60;99.90;;;21.38;37.84;103049.47;5072679;28;20036;-77
2021/03/30 09:48:00;;;;;;;32.33;21.50;;;20.90;99.90;;;21.84;37.75;103038.91;5072772;28;20032;-76
2021/03/30 09:50:29;;;;;;;30.03;20.43;;;21.50;99.90;;;21.53;35.62;103045.66;5073079;28;20123;-77
2021/03/30 09:53:02;;;;;;;34.42;22.42;;;21.50;99.90;;;20.58;38.97;103033.41;5072805;28;20490;-76
2021/03/30 09:55:32;;;;;;;36.45;22.23;;;20.50;99.90;;;20.66;37.88;103010.00;5072968;28;20494;-77
2021/03/30 09:58:03;;;;;;;42.90;24.92;;;20.40;99.90;;;20.69;37.94;103036.91;5072695;28;20044;-77
2021/03/30 10:00:34;;;;;;;46.78;22.50;;;20.30;99.90;;;20.83;39.84;103028.66;5072889;28;20045;-76
2021/03/30 10:03:02;;;;;;;37.80;23.85;;;20.40;99.90;;;19.61;39.15;103014.56;5072783;28;20532;-76
2021/03/30 10:05:34;;;;;;;37.97;23.38;;;19.60;99.90;;;19.60;40.05;103010.13;5072653;28;20414;-76
2021/03/30 10:08:03;;;;;;;37.05;23.85;;;19.40;99.90;;;19.74;39.72;103033.28;5071447;28;20052;-75
2021/03/30 10:10:44;;;;;;;44.42;26.02;;;19.30;99.90;;;19.86;40.66;102983.06;5072563;28;20044;-77
2021/03/30 10:13:24;;;;;;;40.80;25.40;;;19.60;99.90;;;20.00;42.04;103014.25;5072794;28;20448;-77
2021/03/30 10:15:54;;;;;;;40.35;27.02;;;19.60;99.90;;;20.17;41.52;103001.53;5071220;28;20067;-76
2021/03/30 10:18:26;;;;;;;44.67;27.13;;;19.80;99.90;;;20.38;41.64;103000.50;5072430;28;20055;-76